Portada
METAR-TAF:

METAR-TAF

Aeroports :

Hamilton, Ohio, Estats Units d'Amèrica

latitud: 39-21-41N, longitud: 084-31-15W, altitud: 193 m

Observació

L'informe es va fer fa 17 minuts, a les 11:53 UTC
Vent 4 kt amb direcció variable
Temperatura 21°C
Humitat 88%
Pressió 1013 hPa
Visibilitat: 8.0 km
Escasses núvols a una alçada de 7000 ft
Núvols disperses a una alçada de 9000 ft
Cel cobert a una alçada de 11000 ft
pluja, boirina

METAR: KHAO 221153Z AUTO VRB04KT 5SM RA BR FEW070 SCT090 OVC110 21/19 A2990 RMK AO2 LTG DSNT SW AND W SLP118 P0005 60006 70006 T02110189 10250 20211 53010

Hora: 08:10 (12:10 UTC)


TAF: manca

Observacions i pronòstics meteorològics de més de 4000 aeroports (METAR i TAF).

Les estacions disponibles són els punts grocs i vermells al mapa.

Posi el ratolí al punt desitjat per veure el nom de l'estació.

Feu clic per veure les observacions i els pronòstics meteorològics.

Per canviar el mapa: feu clic els botons verds amb una creu de color negre per apropar; al botó verd amb un guió per allunyar la imatge; o en les fletxes verdes per a mapes adjacents.


METAR-TAF: